Tiempo atmosférico en la estación meteorológica de Los Silos, Santa Cruz de Tenerife (28 m.)



Fecha
DESCASC
Temp. máxima en grados centígrados (hora)
DESCASC
Temp. mínima en grados centígrados (hora)
DESCASC
Temp. media en grados centígrados
DESCASC
Racha de viento máxima en m/sg (hora)
DESCASC
Velocidad máxima media en intervalos de 10 minutos(hora)
DESCASC
Precipitaciones diarias en mm
DESCASC
Precipitaciones de 00:00 a 06:00 en mm
DESCASC
Precipitaciones de 06:00 a 12:00 en mm
DESCASC
Precipitaciones de 12:00 a 18:00 en mm
DESCASC
Precipitaciones de 18:00 a 24:00 en mm
DESCASC
18-04-2019 21.6 (14:40) 17 (07:30) 19.3 9.44 (20:00) 7.22 (20:20) -- -- -- -- --
17-04-2019 22.1 (16:10) 14.6 (04:50) 18.4 8.89 (11:00) 6.67 (11:00) -- -- -- -- --
16-04-2019 24.3 (17:30) 15 (00:00) 19.6 9.72 (18:00) 5.56 (18:50) -- -- -- -- --
15-04-2019 22.8 (09:40) 14.9 (00:00) 18.8 8.33 (11:10) 6.11 (12:00) -- -- -- -- --
14-04-2019 21.8 (16:50) 13.5 (00:00) 17.6 7.5 (00:10) 5.83 (00:10) -- -- -- -- --
13-04-2019 22 (13:50) 16.6 (00:00) 19.3 10 (06:30) 7.78 (10:50) -- -- -- -- --
12-04-2019 21.2 (13:40) 16.3 (00:00) 18.8 10.83 (13:40) 8.06 (13:30) -- -- -- -- --
11-04-2019 21.7 (15:10) 16.3 (00:00) 19 11.11 (10:10) 8.33 (22:00) -- -- -- -- --
10-04-2019 21.5 (15:10) 15.9 (00:00) 18.7 10 (19:50) 7.78 (11:20) -- -- -- -- --
09-04-2019 21 (10:00) 15 (00:00) 18 10 (21:00) 7.78 (21:10) -- -- -- -- --
08-04-2019 20.9 (10:40) 14.9 (00:00) 17.9 5.83 (22:20) 4.17 (10:40) -- -- -- -- --
07-04-2019 20.9 (16:30) 13.4 (00:00) 17.1 4.72 (01:10) 3.33 (17:40) -- -- -- -- --
06-04-2019 20.3 (13:20) 16 (00:00) 18.1 9.44 (03:30) 6.94 (01:00) -- -- -- -- --
05-04-2019 20.7 (14:30) 12.9 (00:00) 16.8 9.72 (23:00) 6.67 (15:50) -- -- -- -- --
04-04-2019 -- (--) -- (--) -- 7.78 (15:40) 5.83 (15:40) -- -- -- -- --
03-04-2019 20.8 (16:30) 13.7 (07:50) 17.2 5.83 (17:00) 3.61 (16:10) -- -- -- -- --
02-04-2019 17 (19:00) 13.3 (00:00) 15.2 7.5 (01:40) 5 (01:40) -- -- -- -- --
01-04-2019 20 (13:20) 13.3 (00:00) 16.7 8.61 (23:50) 5.28 (23:50) -- -- -- -- --
31-03-2019 20.9 (16:50) 13.5 (00:00) 17.2 5.28 (12:40) 3.61 (12:40) -- -- -- -- --
30-03-2019 20.2 (09:50) 13.5 (00:00) 16.9 9.72 (06:50) 7.5 (06:50) -- -- -- -- --
29-03-2019 20.9 (14:40) 13.2 (00:00) 17 10.83 (13:50) 6.67 (13:40) -- -- -- -- --
28-03-2019 19.9 (10:30) 13.4 (00:00) 16.6 4.72 (10:10) 3.61 (10:20) -- -- -- -- --
27-03-2019 20.9 (17:30) 15.2 (00:00) 18 5.83 (05:20) 4.44 (11:50) -- -- -- -- --
26-03-2019 21.9 (15:20) 13.1 (00:00) 17.5 6.67 (15:00) 4.17 (14:40) -- -- -- -- --
25-03-2019 19 (16:00) 13 (00:00) 16 7.22 (07:00) 3.61 (07:30) -- -- -- -- --
24-03-2019 21.4 (16:00) 15.9 (00:00) 18.6 7.22 (01:40) 5 (02:30) -- -- -- -- --
23-03-2019 19.7 (14:10) 16.6 (00:00) 18.2 11.11 (01:10) 7.5 (09:40) 0 0 0 0 0
22-03-2019 19.8 (11:40) 16.8 (00:00) 18.3 13.06 (10:10) 9.72 (09:10) 0 0 0 0 0
21-03-2019 20.6 (10:20) 16.3 (00:00) 18.4 12.22 (20:40) 9.17 (21:30) 0 0 0 0 0

Gráficas

Temp. máximas Temp. mínimas Temp. medias Precipitaciones Rachas de viento máximas Velocidades máximas media en intervalos de 10 minutos

Datos horarios

Fecha y hora oficial Temperatura (ºC) Velocidad del viento (km/h) Dirección del viento Racha (km/h) Dirección de racha Precipitación (mm) Presión (hPa) Tendencia (hPa) Humedad (%)
2019-04-19 23:00:00 18 23 Este 37 Este 0 -- -- 57
2019-04-19 22:00:00 17.5 19 Sudeste 35 Este 0 -- -- 62
2019-04-19 21:00:00 18.1 23 Este 32 Este 0 -- -- 65
2019-04-19 20:00:00 18.6 21 Este 29 Este 0 -- -- 65
2019-04-19 19:00:00 18.9 22 Este 29 Este 0 -- -- 64
2019-04-19 18:00:00 19.2 19 Este 26 Este 0 -- -- 59
2019-04-19 17:00:00 19.5 18 Este 24 Este 0 -- -- 57
2019-04-19 16:00:00 20.5 19 Este 25 Este 0 -- -- 59
2019-04-19 15:00:00 21.2 18 Este 27 Este 0 -- -- 54
2019-04-19 14:00:00 20.9 21 Este 32 Este 0 -- -- 54
2019-04-19 13:00:00 20.5 26 Este 33 Este 0 -- -- 52
2019-04-19 12:00:00 20.4 27 Este 35 Este 0 -- -- 52
2019-04-19 11:00:00 20.1 26 Este 37 Este 0 -- -- 54
2019-04-19 10:00:00 19.4 28 Este 44 Sudeste 0 -- -- 58
2019-04-19 09:00:00 18.8 26 Este 40 Sudeste 0 -- -- 57
2019-04-19 08:00:00 17.2 23 Sudeste 39 Este 0 -- -- 64
2019-04-19 07:00:00 17.1 25 Sudeste 38 Sudeste 0 -- -- 61
2019-04-19 06:00:00 17.1 26 Sudeste 39 Sudeste 0 -- -- 64
2019-04-19 05:00:00 17.4 27 Este 39 Este 0 -- -- 68
2019-04-19 04:00:00 17.2 23 Este 38 Sudeste 0 -- -- 70
2019-04-19 03:00:00 17.2 24 Este 36 Este 0 -- -- 69
2019-04-19 02:00:00 17.4 19 Sudeste 35 Sudeste 0 -- -- 66
2019-04-19 01:00:00 17.7 29 Este 38 Este 0 -- -- 67
2019-04-19 00:00:00 17.9 20 Sudeste 30 Este 0 -- -- 65
2019-04-18 23:00:00 17.9 18 Este 27 Este 0 -- -- 63
2019-04-18 22:00:00 18 20 Este 31 Este 0 -- -- 66
2019-04-18 21:00:00 18.3 23 Este 33 Este 0 -- -- 69
2019-04-18 20:00:00 19 22 Este 34 Este 0 -- -- 65
2019-04-18 19:00:00 18.8 24 Este 33 Sudeste 0 -- -- 65
2019-04-18 18:00:00 19.2 23 Este 29 Este 0 -- -- 64
2019-04-18 17:00:00 19.7 20 Este 26 Este 0 -- -- 59
2019-04-18 16:00:00 20.7 19 Este 26 Este 0 -- -- 56
2019-04-18 15:00:00 20.9 20 Este 27 Este 0 -- -- 56
2019-04-18 14:00:00 20.9 21 Este 28 Este 0 -- -- 56
2019-04-18 13:00:00 20.5 22 Este 33 Este 0 -- -- 57
2019-04-18 12:00:00 20 22 Este 32 Este 0 -- -- 61
2019-04-18 11:00:00 19.6 23 Este 30 Nordeste 0 -- -- 61
2019-04-18 10:00:00 20.1 19 Este 29 Este 0 -- -- 63
2019-04-18 09:00:00 18.3 21 Este 29 Este 0 -- -- 65
2019-04-18 08:00:00 17.5 16 Este 27 Este 0 -- -- 71
2019-04-18 07:00:00 17.1 14 Sudeste 28 Este 0 -- -- 69
2019-04-18 06:00:00 17.4 19 Este 27 Este 0 -- -- 70
2019-04-18 05:00:00 17.7 18 Este 28 Este 0 -- -- 69
2019-04-18 04:00:00 17.7 12 Este 24 Sudeste 0 -- -- 69
2019-04-18 03:00:00 17.6 13 Sudeste 26 Este 0 -- -- 71
2019-04-18 02:00:00 18 20 Este 28 Nordeste 0 -- -- 73
2019-04-18 01:00:00 18.2 17 Este 24 Nordeste 0 -- -- 71
2019-04-18 00:00:00 18.3 18 Nordeste 28 Nordeste 0 -- -- 70
2019-04-17 23:00:00 18.3 17 Nordeste 23 Nordeste 0 -- -- 68
2019-04-17 22:00:00 18.5 15 Nordeste 20 Nordeste 0 -- -- 68
2019-04-17 21:00:00 18.7 11 Nordeste 17 Este 0 -- -- 67
2019-04-17 20:00:00 19.5 13 Este 20 Nordeste 0 -- -- 65
2019-04-17 19:00:00 20.7 15 Nordeste 19 Nordeste 0 -- -- 62
2019-04-17 18:00:00 21.5 11 Nordeste 15 Nordeste 0 -- -- 62
2019-04-17 17:00:00 21.3 9 Nordeste 15 Nordeste 0 -- -- 63
2019-04-17 16:00:00 21.4 9 Este 13 Este 0 -- -- 63
2019-04-17 15:00:00 20.8 10 Nordeste 14 Nordeste 0 -- -- 62
2019-04-17 14:00:00 21.3 9 Este 18 Nordeste 0 -- -- 59
2019-04-17 13:00:00 20.9 8 Este 21 Norte 0 -- -- 60
2019-04-17 12:00:00 20.4 10 Norte 28 Norte 0 -- -- 74
2019-04-17 11:00:00 20.4 24 Norte 32 Norte 0 -- -- 75
2019-04-17 10:00:00 20.7 17 Noroeste 30 Oeste 0 -- -- 70
2019-04-17 09:00:00 20.3 12 Oeste 22 Oeste 0 -- -- 68
2019-04-17 08:00:00 16.3 7 Oeste 13 Sudoeste 0 -- -- 73
2019-04-17 07:00:00 15.7 8 Sudoeste 10 Sur 0 -- -- 65
2019-04-17 06:00:00 15.8 8 Sudoeste 15 Sur 0 -- -- 60
2019-04-17 05:00:00 14.8 6 Sudoeste 11 Sur 0 -- -- 64
2019-04-17 04:00:00 16.1 8 Sur 18 Sur 0 -- -- 61
2019-04-17 03:00:00 15.3 6 Sur 13 Sur 0 -- -- 71
2019-04-17 02:00:00 15.6 6 Sudoeste 11 Sur 0 -- -- 73
2019-04-17 01:00:00 18.1 6 Sur 11 Sudeste 0 -- -- 71
2019-04-17 00:00:00 18.2 0 Calma 8 Nordeste 0 -- -- 73
2019-04-16 23:00:00 18.1 2 Oeste 9 Norte 0 -- -- 72
2019-04-16 22:00:00 18.8 6 Norte 9 Norte 0 -- -- 68
2019-04-16 21:00:00 18.8 4 Noroeste 19 Noroeste 0 -- -- 73
2019-04-16 20:00:00 19.9 13 Noroeste 29 Noroeste 0 -- -- 65
2019-04-16 19:00:00 21 19 Noroeste 32 Noroeste 0 -- -- 64
2019-04-16 18:00:00 23.4 19 Noroeste 35 Noroeste 0 -- -- 49
2019-04-16 17:00:00 23.2 12 Este 16 Este 0 -- -- 63
2019-04-16 16:00:00 21.8 10 Este 16 Este 0 -- -- 67
2019-04-16 15:00:00 21.1 9 Este 18 Este 0 -- -- 68
2019-04-16 14:00:00 21.8 15 Este 19 Este 0 -- -- 64
2019-04-16 13:00:00 22.2 12 Este 15 Este 0 -- -- 63
2019-04-16 12:00:00 21.2 10 Nordeste 15 Norte 0 -- -- 65
2019-04-16 11:00:00 21.3 7 Nordeste 11 Este 0 -- -- 62
2019-04-16 10:00:00 21.2 6 Este 9 Nordeste 0 -- -- 58
2019-04-16 09:00:00 21 6 Sur 14 Sur 0 -- -- 58
2019-04-16 08:00:00 15.7 8 Sur 13 Sur 0 -- -- 73
2019-04-16 07:00:00 16 10 Sur 15 Sur 0 -- -- 71
2019-04-16 06:00:00 16.2 7 Sur 14 Sudoeste 0 -- -- 72
2019-04-16 05:00:00 16.7 11 Sur 15 Sur 0 -- -- 70
2019-04-16 04:00:00 16.1 9 Sudoeste 14 Sudoeste 0 -- -- 72
2019-04-16 03:00:00 16.6 6 Sur 14 Sur 0 -- -- 72
2019-04-16 02:00:00 17.1 10 Sur 14 Sur 0 -- -- 71
2019-04-16 01:00:00 18.2 6 Sur 12 Sudoeste 0 -- -- 70
2019-04-16 00:00:00 18.3 6 Sur 10 Sudoeste 0 -- -- 72
2019-04-15 23:00:00 17.8 6 Sur 15 Sudeste 0 -- -- 79
2019-04-15 22:00:00 19.1 10 Este 14 Este 0 -- -- 79
2019-04-15 21:00:00 18.9 7 Sudeste 14 Sudeste 0 -- -- 80
2019-04-15 20:00:00 20 9 Sudeste 14 Este 0 -- -- 76
2019-04-15 19:00:00 19.6 11 Este 17 Este 0 -- -- 77
2019-04-15 18:00:00 19.9 12 Nordeste 16 Nordeste 0 -- -- 78
2019-04-15 17:00:00 20 13 Nordeste 21 Nordeste 0 -- -- 78
2019-04-15 16:00:00 21.4 11 Este 21 Este 0 -- -- 65
2019-04-15 15:00:00 22.3 17 Este 22 Este 0 -- -- 62
2019-04-15 14:00:00 22.1 15 Este 20 Este 0 -- -- 61
2019-04-15 13:00:00 22.2 15 Este 27 Este 0 -- -- 60
2019-04-15 12:00:00 22.1 22 Este 30 Este 0 -- -- 61
2019-04-15 11:00:00 22.1 19 Este 28 Este 0 -- -- 58
2019-04-15 10:00:00 22.5 15 Sudeste 23 Sudeste 0 -- -- 49
2019-04-15 09:00:00 20.3 10 Sudeste 23 Sur 0 -- -- 55
2019-04-15 08:00:00 17.8 13 Sur 23 Sudeste 0 -- -- 64
2019-04-15 07:00:00 17.5 8 Sudeste 15 Sudeste 0 -- -- 67
2019-04-15 06:00:00 16.1 11 Sur 15 Sudoeste 0 -- -- 71
2019-04-15 05:00:00 15.1 7 Sur 13 Sur 0 -- -- 72
2019-04-15 04:00:00 15 4 Sudoeste 9 Sur 0 -- -- 74
2019-04-15 03:00:00 15.9 5 Sudoeste 12 Sur 0 -- -- 70
2019-04-15 02:00:00 16.3 10 Sur 15 Sur 0 -- -- 75
2019-04-15 01:00:00 15.5 6 Sudoeste 12 Sur 0 -- -- 73
2019-04-15 00:00:00 16.9 10 Sur 15 Sur 0 -- -- 68
2019-04-14 23:00:00 17.7 8 Sur 12 Sur 0 -- -- 69
2019-04-14 22:00:00 18.4 9 Este 16 Este 0 -- -- 72
2019-04-14 21:00:00 18.8 9 Este 13 Este 0 -- -- 70
2019-04-14 20:00:00 20 7 Nordeste 13 Nordeste 0 -- -- 67
2019-04-14 19:00:00 20.8 9 Nordeste 13 Nordeste 0 -- -- 63
2019-04-14 18:00:00 21.6 8 Nordeste 15 Nordeste 0 -- -- 61
2019-04-14 17:00:00 21.6 10 Norte 16 Nordeste 0 -- -- 60
2019-04-14 16:00:00 20.9 9 Nordeste 14 Nordeste 0 -- -- 61
2019-04-14 15:00:00 20.9 9 Nordeste 15 Nordeste 0 -- -- 62
2019-04-14 14:00:00 20.9 10 Nordeste 15 Nordeste 0 -- -- 62
2019-04-14 13:00:00 20.7 10 Nordeste 15 Nordeste 0 -- -- 62
2019-04-14 12:00:00 20.7 8 Nordeste 13 Nordeste 0 -- -- 62
2019-04-14 11:00:00 20.4 8 Nordeste 11 Nordeste 0 -- -- 63
2019-04-14 10:00:00 20.6 4 Nordeste 9 Este 0 -- -- 60
2019-04-14 09:00:00 19.2 6 Sudoeste 12 Sudoeste 0 -- -- 60
2019-04-14 08:00:00 14 8 Sudoeste 10 Sur 0 -- -- 73
2019-04-14 07:00:00 15 8 Sur 14 Sur 0 -- -- 69
2019-04-14 06:00:00 15.8 9 Sur 20 Sudeste 0 -- -- 69
2019-04-14 05:00:00 16.8 13 Sudeste 21 Sudeste 0 -- -- 68
2019-04-14 04:00:00 16.5 9 Sudeste 21 Sudeste 0 -- -- 70
2019-04-14 03:00:00 16.8 12 Sudeste 20 Sudeste 0 -- -- 71
2019-04-14 02:00:00 17.5 13 Sudeste 22 Sudeste 0 -- -- 68
2019-04-14 01:00:00 17.5 13 Sudeste 27 Sudeste 0 -- -- 75
2019-04-14 00:00:00 18.2 21 Este 28 Este 0 -- -- 77
2019-04-13 23:00:00 18.4 16 Este 22 Sudeste 0 -- -- 78
2019-04-13 22:00:00 18.3 17 Este 24 Este 0 -- -- 73
2019-04-13 21:00:00 18.4 20 Este 26 Este 0 -- -- 72
2019-04-13 20:00:00 18.9 17 Este 26 Este 0 -- -- 72
2019-04-13 19:00:00 19.1 21 Este 29 Este 0 -- -- 71
2019-04-13 18:00:00 19.6 21 Este 31 Este 0 -- -- 68
2019-04-13 17:00:00 20 22 Este 28 Este 0 -- -- 67
2019-04-13 16:00:00 21.2 19 Este 26 Este 0 -- -- 62
2019-04-13 15:00:00 21.2 19 Este 28 Este 0 -- -- 62
2019-04-13 14:00:00 21.5 20 Este 31 Este 0 -- -- 60
2019-04-13 13:00:00 21.5 23 Este 34 Este 0 -- -- 60
2019-04-13 12:00:00 21.1 23 Este 35 Este 0 -- -- 58
2019-04-13 11:00:00 20.1 27 Este 35 Este 0 -- -- 62
2019-04-13 10:00:00 19.1 24 Este 33 Este 0 -- -- 63
2019-04-13 09:00:00 19.3 20 Sudeste 32 Este 0 -- -- 65
2019-04-13 08:00:00 17.2 22 Sudeste 31 Sudeste 0 -- -- 65
2019-04-13 07:00:00 16.9 19 Sudeste 36 Sudeste 0 -- -- 68
2019-04-13 06:00:00 17.3 21 Sudeste 35 Este 0 -- -- 67
2019-04-13 05:00:00 17.5 23 Este 33 Sudeste 0 -- -- 65
2019-04-13 04:00:00 17.4 20 Sudeste 33 Sudeste 0 -- -- 67
2019-04-13 03:00:00 17 19 Sudeste 30 Sudeste 0 -- -- 65
2019-04-13 02:00:00 17.3 19 Este 25 Este 0 -- -- 66
2019-04-13 01:00:00 16.6 13 Sudeste 30 Sudeste 0 -- -- 67
2019-04-13 00:00:00 16.8 16 Sudeste 30 Sudeste 0 -- -- 66
2019-04-12 23:00:00 17.1 21 Sudeste 34 Sudeste 0 -- -- 65
2019-04-12 22:00:00 17.3 21 Sudeste 32 Este 0 -- -- 65
2019-04-12 21:00:00 17.6 24 Este 32 Este 0 -- -- 67
2019-04-12 20:00:00 18.4 25 Este 33 Este 0 -- -- 62
2019-04-12 19:00:00 18.9 22 Este 31 Este 0 -- -- 62
2019-04-12 18:00:00 19.5 25 Este 32 Este 0 -- -- 60
2019-04-12 17:00:00 20.1 24 Este 32 Este 0 -- -- 58
2019-04-12 16:00:00 20.2 23 Este 33 Este 0 -- -- 57
2019-04-12 15:00:00 20.7 26 Este 35 Este 0 -- -- 58
2019-04-12 14:00:00 21.1 26 Este 39 Este 0 -- -- 58
2019-04-12 13:00:00 20.9 24 Este 32 Este 0 -- -- 54
2019-04-12 12:00:00 20.5 23 Este 34 Este 0 -- -- 56
2019-04-12 11:00:00 19.9 26 Este 36 Este 0 -- -- 60
2019-04-12 10:00:00 19.9 21 Este 35 Sudeste 0 -- -- 54
2019-04-12 09:00:00 18.6 19 Sudeste 31 Este 0 -- -- 63
2019-04-12 08:00:00 17.3 22 Este 33 Este 0 -- -- 72
2019-04-12 07:00:00 17 19 Este 36 Este 0 -- -- 60
2019-04-12 06:00:00 16.3 15 Sudeste 37 Sudeste 0 -- -- 65
2019-04-12 05:00:00 17 25 Este 36 Este 0 -- -- 66
2019-04-12 04:00:00 16.9 20 Este 35 Sudeste 0 -- -- 67
2019-04-12 03:00:00 16.9 23 Sudeste 32 Sudeste 0 -- -- 61
2019-04-12 02:00:00 16.8 18 Sudeste 35 Sudeste 0 -- -- 66
2019-04-12 01:00:00 17.7 26 Este 37 Este 0 -- -- 68
2019-04-12 00:00:00 17.6 27 Este 37 Este 0 -- -- 66
2019-04-11 23:00:00 17.9 25 Este 35 Este 0 -- -- 57
2019-04-11 22:00:00 17.8 30 Este 40 Este 0 -- -- 66
2019-04-11 21:00:00 17.9 28 Este 37 Este 0 -- -- 66
2019-04-11 20:00:00 18.6 24 Este 32 Este 0 -- -- 61
2019-04-11 19:00:00 18.8 25 Este 35 Este 0 -- -- 62
2019-04-11 18:00:00 19.5 27 Este 35 Este 0 -- -- 61
2019-04-11 17:00:00 20.2 26 Este 33 Este 0 -- -- 58
2019-04-11 16:00:00 20 27 Este 37 Este 0 -- -- 56
2019-04-11 15:00:00 21.3 23 Este 31 Este 0 -- -- 55
2019-04-11 14:00:00 19.8 24 Este 35 Este 0 -- -- 56
2019-04-11 13:00:00 20.4 27 Este 38 Este 0 -- -- 54
2019-04-11 12:00:00 20 26 Este 37 Este 0 -- -- 55
2019-04-11 11:00:00 19.8 26 Este 40 Este 0 -- -- 55
2019-04-11 10:00:00 19.3 27 Este 35 Este 0 -- -- 56
2019-04-11 09:00:00 18.3 19 Sudeste 35 Sudeste 0 -- -- 56
2019-04-11 08:00:00 17 21 Sudeste 36 Sudeste 0 -- -- 62
2019-04-11 07:00:00 16.7 19 Sudeste 33 Sudeste 0 -- -- 62
2019-04-11 06:00:00 16.3 17 Sudeste 31 Sudeste 0 -- -- 58
2019-04-11 05:00:00 16.9 22 Sudeste 34 Sudeste 0 -- -- 62
2019-04-11 04:00:00 17 23 Este 35 Este 0 -- -- 59
2019-04-11 03:00:00 17.1 19 Sudeste 32 Sudeste 0 -- -- 54
2019-04-11 02:00:00 17.1 20 Sudeste 30 Este 0 -- -- 64
2019-04-11 01:00:00 17 17 Sudeste 26 Sudeste 0 -- -- 61
2019-04-11 00:00:00 17.1 19 Sudeste 31 Este 0 -- -- 63
2019-04-10 23:00:00 17.6 19 Este 36 Este 0 -- -- 67
2019-04-10 22:00:00 18 26 Este 35 Este 0 -- -- 65
2019-04-10 21:00:00 18.1 25 Este 36 Este 0 -- -- 64
2019-04-10 20:00:00 18.7 27 Este 36 Este 0 -- -- 63
2019-04-10 19:00:00 19.8 23 Este 31 Este 0 -- -- 64
2019-04-10 18:00:00 20.4 23 Este 30 Este 0 -- -- 56
2019-04-10 17:00:00 20.8 22 Este 31 Este 0 -- -- 57
2019-04-10 16:00:00 20.7 21 Este 28 Este 0 -- -- 55
2019-04-10 15:00:00 21.3 19 Este 29 Este 0 -- -- 51
2019-04-10 14:00:00 20.7 19 Este 29 Este 0 -- -- 55
2019-04-10 13:00:00 19.8 24 Este 34 Este 0 -- -- 55
2019-04-10 12:00:00 18.9 24 Este 36 Este 0 -- -- 59
2019-04-10 11:00:00 20.2 24 Este 33 Este 0 -- -- 61
2019-04-10 10:00:00 19.5 22 Este 33 Este 0 -- -- 59
2019-04-10 09:00:00 18.4 17 Este 26 Este 0 -- -- 59
2019-04-10 08:00:00 15.9 5 Sudeste 19 Sudeste 0 -- -- 64
2019-04-10 07:00:00 16.3 13 Sudeste 29 Sudeste 0 -- -- 61
2019-04-10 06:00:00 16.4 14 Sudeste 27 Sudeste 0 -- -- 63
2019-04-10 05:00:00 16.5 17 Sudeste 30 Sudeste 0 -- -- 60
2019-04-10 04:00:00 16.3 17 Sudeste 30 Sudeste 0 -- -- 68
2019-04-10 03:00:00 16.3 14 Sudeste 25 Sudeste 0 -- -- 66
2019-04-10 02:00:00 16.4 16 Sudeste 28 Sudeste 0 -- -- 68
2019-04-10 01:00:00 16.5 18 Sudeste 32 Sudeste 0 -- -- 70
2019-04-10 00:00:00 17 23 Sudeste 30 Sudeste 0 -- -- 70
2019-04-09 23:00:00 17.2 18 Este 28 Este 0 -- -- 75
2019-04-09 22:00:00 17.2 14 Sudeste 33 Este 0 -- -- 73
2019-04-09 21:00:00 18 26 Este 36 Este 0 -- -- 72
2019-04-09 20:00:00 18.4 24 Este 34 Este 0 -- -- 72
2019-04-09 19:00:00 19.3 22 Este 31 Este 0 -- -- 71
2019-04-09 18:00:00 19.5 21 Este 29 Este 0 -- -- 70
2019-04-09 17:00:00 19.3 19 Este 29 Este 0 -- -- 71
2019-04-09 16:00:00 19.2 19 Sudeste 30 Este 0 -- -- 67
2019-04-09 15:00:00 18.6 18 Este 30 Este 0 -- -- 78
2019-04-09 14:00:00 19 21 Este 31 Este 0 -- -- 74
2019-04-09 13:00:00 20.6 15 Este 19 Este 0 -- -- 67
2019-04-09 12:00:00 20.7 12 Este 18 Este 0 -- -- 65
2019-04-09 11:00:00 20.5 15 Este 19 Este 0 -- -- 65
2019-04-09 10:00:00 21 11 Este 17 Este 0 -- -- 59
2019-04-09 09:00:00 18.5 12 Este 19 Este 0 -- -- 67
2019-04-09 08:00:00 17.7 10 Sudeste 18 Este 0 -- -- 63
2019-04-09 07:00:00 17.6 13 Este 21 Este 0 -- -- 66
2019-04-09 06:00:00 16.8 5 Sur 18 Sur 0 -- -- 63
2019-04-09 05:00:00 16.9 10 Sudeste 18 Sudeste 0 -- -- 61
2019-04-09 04:00:00 15.7 7 Sur 13 Sudeste 0 -- -- 68
2019-04-09 03:00:00 15.2 9 Sur 13 Sur 0 -- -- 67
2019-04-09 02:00:00 15.8 6 Sudeste 14 Sur 0 -- -- 64
2019-04-09 01:00:00 16.5 9 Sur 17 Sur 0 -- -- 62
2019-04-09 00:00:00 17.2 9 Sur 16 Sur 0 -- -- 59
2019-04-08 23:00:00 17.9 9 Sudeste 21 Este 0 -- -- 59
2019-04-08 22:00:00 18.4 12 Este 17 Este 0 -- -- 59
2019-04-08 21:00:00 18.4 12 Este 16 Este 0 -- -- 62
2019-04-08 20:00:00 19.6 10 Este 16 Nordeste 0 -- -- 58
2019-04-08 19:00:00 19.2 11 Este 15 Este 0 -- -- 57
2019-04-08 18:00:00 19.2 9 Este 14 Nordeste 0 -- -- 58
2019-04-08 17:00:00 19.5 11 Nordeste 15 Nordeste 0 -- -- 56
2019-04-08 16:00:00 19.8 8 Este 14 Este 0 -- -- 61
2019-04-08 15:00:00 20.5 12 Este 16 Este 0 -- -- 62
2019-04-08 14:00:00 20.1 10 Este 15 Este 0 -- -- 62
2019-04-08 13:00:00 19.9 10 Este 17 Este 0 -- -- 62
2019-04-08 12:00:00 20.5 12 Este 19 Nordeste 0 -- -- 60
2019-04-08 11:00:00 20.1 12 Nordeste 21 Nordeste 0 -- -- 60
2019-04-08 10:00:00 20.4 8 Este 14 Este 0 -- -- 56
2019-04-08 09:00:00 17.4 4 Sudoeste 9 Sudoeste 0 -- -- 70
2019-04-08 08:00:00 16 6 Sudoeste 14 Sudoeste 0 -- -- 78
2019-04-08 07:00:00 16 7 Sudoeste 13 Sudoeste 0 -- -- 77
2019-04-08 06:00:00 15.5 9 Sudoeste 16 Sudoeste 0 -- -- 81
2019-04-08 05:00:00 15.3 8 Sur 15 Nordeste 0 -- -- 87
2019-04-08 04:00:00 16.8 3 Nordeste 13 Nordeste 0 -- -- 78
2019-04-08 03:00:00 16.2 4 Sudoeste 8 Sudoeste 0 -- -- 70
2019-04-08 02:00:00 16 3 Sur 10 Sudeste 0 -- -- 75
2019-04-08 01:00:00 17.7 6 Sudeste 12 Este 0 -- -- 69
2019-04-08 00:00:00 17.8 7 Este 13 Este 0 -- -- 69
2019-04-07 23:00:00 17.8 10 Nordeste 15 Nordeste 0 -- -- 73
2019-04-07 22:00:00 17.9 10 Nordeste 13 Nordeste 0 -- -- 68
2019-04-07 21:00:00 18.2 10 Nordeste 14 Este 0 -- -- 68
2019-04-07 20:00:00 18.9 9 Este 16 Este 0 -- -- 66
2019-04-07 19:00:00 20.5 10 Este 14 Este 0 -- -- 61
2019-04-07 18:00:00 20.9 10 Este 15 Nordeste 0 -- -- 60
2019-04-07 17:00:00 20.8 10 Este 15 Este 0 -- -- 59
2019-04-07 16:00:00 20.3 10 Nordeste 15 Este 0 -- -- 59
2019-04-07 15:00:00 20.3 11 Este 15 Este 0 -- -- 60
2019-04-07 14:00:00 20.2 9 Nordeste 14 Nordeste 0 -- -- 59
2019-04-07 13:00:00 20.2 9 Nordeste 13 Nordeste 0 -- -- 60
2019-04-07 12:00:00 19.9 8 Nordeste 12 Norte 0 -- -- 59
2019-04-07 11:00:00 19.8 7 Nordeste 10 Norte 0 -- -- 58
2019-04-07 10:00:00 20.1 5 Este 10 Este 0 -- -- 56
2019-04-07 09:00:00 17.9 8 Sudoeste 13 Sudoeste 0 -- -- 58
2019-04-07 08:00:00 13.7 9 Sudoeste 13 Sur 0 -- -- 71
2019-04-07 07:00:00 14 8 Sur 14 Sur 0 -- -- 69
2019-04-07 06:00:00 14.8 8 Sudoeste 13 Sudoeste 0 -- -- 66
2019-04-07 05:00:00 14.1 8 Sudoeste 13 Sur 0 -- -- 69
2019-04-07 04:00:00 14.7 7 Sur 17 Sur 0 -- -- 69
2019-04-07 03:00:00 15.9 8 Sur 15 Sur 0 -- -- 64
2019-04-07 02:00:00 15.8 7 Sur 17 Sudeste 0 -- -- 67
2019-04-07 01:00:00 16.4 9 Sudeste 16 Sur 0 -- -- 67
2019-04-07 00:00:00 16.5 7 Sudeste 15 Sudeste 0 -- -- 69
2019-04-06 23:00:00 16.8 9 Sudeste 18 Sudeste 0 -- -- 69
2019-04-06 22:00:00 16.8 10 Sudeste 21 Este 0 -- -- 67
2019-04-06 21:00:00 17.4 14 Este 20 Este 0 -- -- 67
2019-04-06 20:00:00 18.2 15 Este 22 Este 0 -- -- 63
2019-04-06 19:00:00 19.7 16 Este 22 Este 0 -- -- 57
2019-04-06 18:00:00 19.7 15 Este 23 Este 0 -- -- 58
2019-04-06 17:00:00 19.8 16 Este 22 Este 0 -- -- 56
2019-04-06 16:00:00 19.5 15 Este 21 Este 0 -- -- 58
2019-04-06 15:00:00 19.3 15 Este 23 Este 0 -- -- 58
2019-04-06 14:00:00 19.3 17 Este 23 Este 0 -- -- 60
2019-04-06 13:00:00 19.7 15 Este 23 Este 0 -- -- 58
2019-04-06 12:00:00 19.1 17 Este 24 Este 0 -- -- 61
2019-04-06 11:00:00 17.9 17 Este 25 Este 0 -- -- 65
2019-04-06 10:00:00 17.3 17 Este 27 Este 0 -- -- 67
2019-04-06 09:00:00 17.1 13 Este 23 Este 0 -- -- 67
2019-04-06 08:00:00 16.7 17 Este 30 Este 0 -- -- 65
2019-04-06 07:00:00 16.2 11 Sudeste 21 Este 0 -- -- 62
2019-04-06 06:00:00 16.1 13 Sudeste 26 Este 0 -- -- 66
2019-04-06 05:00:00 16.3 12 Este 24 Este 0 -- -- 67
2019-04-06 04:00:00 16.4 19 Nordeste 34 Nordeste 0.2 -- -- 69
2019-04-06 03:00:00 17.2 20 Este 28 Este 0 -- -- 62
2019-04-06 02:00:00 17.1 21 Este 32 Nordeste 0 -- -- 65
2019-04-06 01:00:00 17 25 Nordeste 32 Nordeste 0 -- -- 74
2019-04-06 00:00:00 17.3 17 Este 30 Nordeste 0 -- -- 64
2019-04-05 23:00:00 17.5 24 Nordeste 35 Nordeste 0 -- -- 65
2019-04-05 22:00:00 17.5 19 Nordeste 28 Nordeste 0 -- -- 63
2019-04-05 21:00:00 17.6 19 Nordeste 29 Nordeste 0 -- -- 67
2019-04-05 20:00:00 18.6 15 Nordeste 23 Nordeste 0 -- -- 57
2019-04-05 19:00:00 19 16 Nordeste 29 Norte 0 -- -- 59
2019-04-05 18:00:00 18.7 15 Nordeste 24 Nordeste 0 -- -- 70
2019-04-05 17:00:00 19.4 16 Norte 29 Nordeste 0 -- -- 62
2019-04-05 16:00:00 20.4 19 Norte 31 Norte 0 -- -- 59
2019-04-05 15:00:00 20.4 9 Este 17 Este 0 -- -- 57
2019-04-05 14:00:00 20 12 Este 17 Este 0 -- -- 57
2019-04-05 13:00:00 19.8 8 Nordeste 14 Este 0 -- -- 59
2019-04-05 12:00:00 19.8 10 Nordeste 17 Este 0 -- -- 60
2019-04-05 11:00:00 18.8 13 Nordeste 21 Nordeste 0 -- -- 58
2019-04-05 10:00:00 18.8 11 Nordeste 19 Este 0 -- -- 51
2019-04-05 09:00:00 17 8 Este 15 Este 0 -- -- 61
2019-04-05 08:00:00 14.1 4 Sudoeste 13 Este 0 -- -- 73
2019-04-05 07:00:00 16.1 8 Sudeste 22 Este 0 -- -- 62
2019-04-05 06:00:00 15.6 15 Nordeste 26 Nordeste 0 -- -- 76
2019-04-05 05:00:00 13.7 5 Sur 9 Sudoeste 0 -- -- 73
2019-04-05 04:00:00 15 0 Calma 17 Sudeste 0 -- -- 67
2019-04-05 03:00:00 16.1 10 Sudeste 22 Este 0 -- -- 68
2019-04-05 02:00:00 16.3 11 Sudeste 22 Este 0 -- -- 72
2019-04-05 01:00:00 16.5 12 Este 19 Nordeste 0 -- -- 74
2019-04-05 00:00:00 16.5 15 Nordeste 24 Nordeste 0 -- -- 77
2019-04-04 23:00:00 17 15 Nordeste 20 Nordeste 0 -- -- 73
2019-04-04 22:00:00 16.8 12 Nordeste 21 Nordeste 0 -- -- 75
2019-04-04 21:00:00 17.2 14 Nordeste 20 Nordeste 0 -- -- 73
2019-04-04 20:00:00 18 14 Nordeste 19 Nordeste 0 -- -- 69
2019-04-04 19:00:00 18.8 13 Nordeste 22 Nordeste 0 -- -- 65
2019-04-04 18:00:00 19.7 16 Nordeste 23 Nordeste 0 -- -- 63
2019-04-04 17:00:00 19.4 17 Nordeste 23 Nordeste 0 -- -- 63
2019-04-04 16:00:00 20.1 18 Nordeste 28 Nordeste 0 -- -- 61
2019-04-04 15:00:00 20 16 Nordeste 26 Nordeste 0 -- -- 60
2019-04-04 14:00:00 20.6 19 Este 24 Este 0 -- -- 61
2019-04-04 13:00:00 20 13 Nordeste 18 Este 0 -- -- 58
2019-04-04 12:00:00 -- 15 Este -- -- -- -- -- --
2019-04-04 11:00:00 -- 14 Este 19 Este -- -- -- --
2019-04-04 10:00:00 17.7 12 Este 18 Este -- -- -- 76
2019-04-04 09:00:00 14.4 4 Sudeste 12 Noroeste -- -- -- 92
2019-04-04 08:00:00 13.5 2 Oeste 8 Sur -- -- -- 92
2019-04-04 07:00:00 13.4 4 Sudoeste 12 Sudoeste -- -- -- 91
2019-04-04 06:00:00 13.4 4 Sudeste 14 Sur -- -- -- 91
2019-04-04 05:00:00 13.5 5 Sudeste 14 Sudeste -- -- -- 88
2019-04-04 04:00:00 13.7 3 Oeste 19 Sudoeste -- -- -- 91
2019-04-04 03:00:00 14.4 8 Oeste 13 Sudoeste -- -- -- 85
2019-04-04 02:00:00 14.8 9 Sur 15 Sur -- -- -- 83
2019-04-04 01:00:00 15.1 9 Sudoeste 12 Sudoeste -- -- -- 85
2019-04-04 00:00:00 15.1 6 Sudoeste 8 Sudoeste -- -- -- 82
2019-04-03 23:00:00 15.3 4 Sudoeste 8 Sudoeste -- -- -- 84
2019-04-03 22:00:00 16 0 Calma 6 Norte -- -- -- 81
2019-04-03 21:00:00 16.8 6 Norte 17 Norte -- -- -- 76
2019-04-03 20:00:00 17.8 10 Nordeste 15 Norte -- -- -- 73
2019-04-03 19:00:00 19.8 9 Norte 20 Norte -- -- -- 65
2019-04-03 18:00:00 19.3 8 Noroeste 20 Noroeste -- -- -- 65
2019-04-03 17:00:00 20.6 12 Noroeste 21 Noroeste -- -- -- 61
2019-04-03 16:00:00 19.8 11 Norte 21 Norte -- -- -- 63
2019-04-03 15:00:00 20 11 Norte 19 Norte -- -- -- 64
2019-04-03 14:00:00 19.3 10 Norte 17 Norte -- -- -- 63
2019-04-03 13:00:00 18.7 8 Nordeste 15 Norte -- -- -- 66
2019-04-03 12:00:00 18.7 7 Norte 14 Noroeste -- -- -- 69
2019-04-03 11:00:00 16.8 6 Noroeste 11 Noroeste -- -- -- 78
2019-04-03 10:00:00 14.9 5 Sudoeste 9 Sudoeste -- -- -- 90
2019-04-03 09:00:00 14.3 7 Oeste 17 Sur -- -- -- 90
2019-04-03 08:00:00 13.8 12 Sudoeste 19 Sur -- -- -- 93
2019-04-03 07:00:00 14.3 4 Norte 13 Norte -- -- -- 91
2019-04-03 06:00:00 14 8 Sudoeste 10 Sudoeste -- -- -- 91
2019-04-03 05:00:00 14.3 6 Sudoeste 11 Sudoeste -- -- -- 90
2019-04-03 04:00:00 14.3 8 Sudoeste 11 Sudoeste -- -- -- 90
2019-04-03 03:00:00 14 8 Sudoeste 11 Sur -- -- -- 91
2019-04-03 02:00:00 14.2 7 Sur 12 Sur -- -- -- 91
2019-04-03 01:00:00 14.2 6 Sudoeste 13 Oeste -- -- -- 91
2019-04-03 00:00:00 14.8 7 Oeste 14 Sudoeste -- -- -- 91
2019-04-02 23:00:00 14.5 10 Sudoeste 15 Sudoeste -- -- -- 92
2019-04-02 22:00:00 14.5 5 Sur 13 Sur -- -- -- 94
2019-04-02 21:00:00 14.8 6 Sur 11 Este -- -- -- 94
2019-04-02 20:00:00 15.4 9 Este 17 Norte -- -- -- 93
2019-04-02 19:00:00 17 3 Sudoeste 10 Sudoeste -- -- -- 87
2019-04-02 18:00:00 16 6 Sudoeste 10 Oeste -- -- -- 90
2019-04-02 17:00:00 16.4 3 Sudeste 9 Sur -- -- -- 86
2019-04-02 16:00:00 16.5 3 Este 6 Norte -- -- -- 85
2019-04-02 15:00:00 16.3 3 Sur 9 Sudeste -- -- -- 88
2019-04-02 14:00:00 16.6 5 Sudeste 9 Este -- -- -- 92
2019-04-02 13:00:00 15.8 4 Este 6 Este -- -- -- 92
2019-04-02 12:00:00 15.7 3 Este 10 Sudeste -- -- -- 92
2019-04-02 11:00:00 15.3 4 Sudeste 19 Oeste -- -- -- 93
2019-04-02 10:00:00 14.6 10 Oeste 18 Oeste -- -- -- 94
2019-04-02 09:00:00 13.3 10 Sudoeste 16 Sudoeste -- -- -- 92
2019-04-02 08:00:00 13.8 5 Oeste 8 Sudoeste -- -- -- 88
2019-04-02 07:00:00 13.7 8 Sur 12 Sur -- -- -- 87
2019-04-02 06:00:00 13.8 7 Sudeste 16 Sudeste -- -- -- 85
2019-04-02 05:00:00 14.2 12 Sudeste 18 Sudeste -- -- -- 83
2019-04-02 04:00:00 14.4 5 Sur 14 Sudoeste -- -- -- 80
2019-04-02 03:00:00 14.2 9 Sur 23 Sur -- -- -- 80
2019-04-02 02:00:00 14.8 14 Sur 27 Sudeste -- -- -- 75
2019-04-02 01:00:00 14.6 15 Sur 26 Sur -- -- -- 74
2019-04-02 00:00:00 13.4 18 Sur 31 Sudeste -- -- -- 88
2019-04-01 23:00:00 13.3 3 Sur 13 Norte -- -- -- 95
2019-04-01 22:00:00 14.6 7 Norte 12 Nordeste -- -- -- 94
2019-04-01 21:00:00 14.9 8 Este 13 Este -- -- -- 93
2019-04-01 20:00:00 15.5 6 Sudeste 12 Este -- -- -- 89
2019-04-01 19:00:00 16.1 7 Sudeste 18 Este -- -- -- 83
2019-04-01 18:00:00 17.1 13 Este 18 Este -- -- -- 78
2019-04-01 17:00:00 18.4 6 Sudeste 13 Este -- -- -- 74
2019-04-01 16:00:00 19.6 8 Este 14 Este -- -- -- 67
2019-04-01 15:00:00 19.6 9 Este 12 Este -- -- -- 64
2019-04-01 14:00:00 19.6 9 Este 13 Este -- -- -- 63
2019-04-01 13:00:00 19.6 10 Este 14 Este -- -- -- 63
2019-04-01 12:00:00 19.5 8 Nordeste 14 Este -- -- -- 66
2019-04-01 11:00:00 19.7 8 Este 12 Este -- -- -- 63
2019-04-01 10:00:00 19.4 4 Este 9 Sur -- -- -- 62
2019-04-01 09:00:00 16 5 Sudoeste 9 Sudoeste -- -- -- 68
2019-04-01 08:00:00 14.5 8 Sudoeste 13 Sudoeste -- -- -- 70
2019-04-01 07:00:00 14.2 10 Sudoeste 13 Sudoeste -- -- -- 70
2019-04-01 06:00:00 13.8 9 Sudoeste 14 Sudoeste -- -- -- 73
2019-04-01 05:00:00 14.1 10 Sudoeste 14 Sur -- -- -- 72
2019-04-01 04:00:00 13.9 8 Sudoeste 13 Sudoeste -- -- -- 76
2019-04-01 03:00:00 14.7 8 Sudoeste 14 Sur -- -- -- 77
2019-04-01 02:00:00 14 6 Sudoeste 9 Sur -- -- -- 84
2019-04-01 01:00:00 14.7 4 Sudoeste 6 Sudoeste -- -- -- 83
2019-04-01 00:00:00 15.9 3 Sudoeste 5 Sudoeste -- -- -- 79
2019-03-31 23:00:00 16.4 3 Sudoeste 11 Nordeste -- -- -- 76
2019-03-31 22:00:00 17.6 8 Nordeste 13 Nordeste -- -- -- 73
2019-03-31 21:00:00 17.8 5 Nordeste 13 Nordeste -- -- -- 73
2019-03-31 20:00:00 18.4 6 Nordeste 10 Nordeste -- -- -- 72
2019-03-31 19:00:00 19.2 7 Nordeste 14 Este -- -- -- 69
2019-03-31 18:00:00 20.3 9 Nordeste 15 Este -- -- -- 65
2019-03-31 17:00:00 20.9 12 Nordeste 16 Nordeste -- -- -- 62
2019-03-31 16:00:00 20.6 10 Este 14 Este -- -- -- 63
2019-03-31 15:00:00 20.2 9 Nordeste 14 Nordeste -- -- -- 66
2019-03-31 14:00:00 20.4 9 Este 16 Nordeste -- -- -- 70
2019-03-31 13:00:00 19.3 12 Norte 19 Norte -- -- -- 73
2019-03-31 12:00:00 20.5 11 Norte 16 Norte -- -- -- 65
2019-03-31 11:00:00 20.5 10 Norte 14 Norte -- -- -- 63
2019-03-31 10:00:00 20 6 Norte 10 Nordeste -- -- -- 63
2019-03-31 09:00:00 17.2 7 Sudoeste 12 Sudoeste -- -- -- 70
2019-03-31 08:00:00 15.3 8 Sudoeste 13 Sur -- -- -- 75
2019-03-31 07:00:00 14.5 9 Sudoeste 13 Sudoeste -- -- -- 74
2019-03-31 06:00:00 14.5 11 Sudoeste 14 Sudoeste -- -- -- 72
2019-03-31 05:00:00 13.9 9 Sudoeste 12 Sudoeste -- -- -- 77
2019-03-31 04:00:00 14.1 9 Sudoeste 12 Sudoeste -- -- -- 80
2019-03-31 00:00:00 14.3 10 Sudoeste 15 Sudoeste -- -- -- 68
2019-03-30 23:00:00 13.8 8 Sudoeste 13 Sudoeste -- -- -- 67
2019-03-30 22:00:00 14.2 8 Sudoeste 12 Sudoeste -- -- -- 68
2019-03-30 21:00:00 14.6 8 Sudoeste 12 Sudoeste -- -- -- 76
2019-03-30 20:00:00 15.5 5 Sudoeste 10 Este -- -- -- 73
2019-03-30 19:00:00 18.2 4 Este 10 Nordeste -- -- -- 63
2019-03-30 18:00:00 19.7 6 Nordeste 11 Este -- -- -- 59
2019-03-30 17:00:00 19.8 8 Nordeste 13 Nordeste -- -- -- 58
2019-03-30 16:00:00 19.5 9 Nordeste 16 Nordeste -- -- -- 60
2019-03-30 15:00:00 19.7 11 Este 16 Este -- -- -- 63
2019-03-30 14:00:00 19.8 11 Este 16 Este -- -- -- 62
2019-03-30 13:00:00 19.4 13 Nordeste 19 Nordeste -- -- -- 66
2019-03-30 12:00:00 19.5 14 Nordeste 20 Norte -- -- -- 69
2019-03-30 11:00:00 20 8 Nordeste 12 Nordeste -- -- -- 50
2019-03-30 10:00:00 19.9 7 Este 12 Sudeste -- -- -- 52
2019-03-30 09:00:00 18.7 6 Sur 16 Sudoeste -- -- -- 61
2019-03-30 08:00:00 15.7 9 Sur 23 Este -- -- -- 76
2019-03-30 07:00:00 15.6 25 Este 35 Este -- -- -- 82
2019-03-30 06:00:00 14.1 5 Sudoeste 21 Sur -- -- -- 84
2019-03-30 05:00:00 14.9 4 Oeste 13 Noroeste -- -- -- 82
2019-03-30 04:00:00 14.4 7 Sudoeste 12 Sudoeste -- -- -- 80
2019-03-30 03:00:00 14.1 8 Sudoeste 13 Sudoeste -- -- -- 78
2019-03-30 02:00:00 14 10 Sudoeste 12 Sudoeste -- -- -- 77
2019-03-30 01:00:00 14.5 9 Sudoeste 10 Sudoeste -- -- -- 71
2019-03-30 00:00:00 15.1 9 Sudoeste 12 Sudoeste -- -- -- 64
2019-03-29 23:00:00 15.4 5 Sur 16 Sudoeste -- -- -- 59
2019-03-29 22:00:00 14.8 9 Sudoeste 17 Sur -- -- -- 66
2019-03-29 21:00:00 15.1 11 Sur 15 Sur -- -- -- 69
2019-03-29 20:00:00 14.9 6 Sur 13 Este -- -- -- 77
2019-03-29 19:00:00 17.4 9 Este 13 Este -- -- -- 72
2019-03-29 18:00:00 18.7 7 Este 15 Sudeste -- -- -- 67
2019-03-29 17:00:00 18.3 12 Este 24 Este -- -- -- 71
2019-03-29 16:00:00 19.7 15 Norte 32 Noroeste -- -- -- 68
2019-03-29 15:00:00 20.7 23 Noroeste 37 Noroeste -- -- -- 63
2019-03-29 14:00:00 20.8 23 Noroeste 39 Noroeste -- -- -- 62
2019-03-29 13:00:00 18.6 18 Noroeste 33 Noroeste -- -- -- 73
2019-03-29 12:00:00 19.7 7 Este 13 Este -- -- -- 75
2019-03-29 11:00:00 18.9 10 Este 14 Este -- -- -- 76
2019-03-29 10:00:00 19.1 10 Este 14 Este -- -- -- 74
2019-03-29 09:00:00 18.8 4 Nordeste 7 Nordeste -- -- -- 76
2019-03-29 08:00:00 17.3 5 Sudoeste 11 Sudoeste -- -- -- 75
2019-03-29 07:00:00 13.7 8 Sudoeste 12 Sudoeste -- -- -- 86
2019-03-29 06:00:00 13.5 8 Sudoeste 12 Sudoeste -- -- -- 85
2019-03-29 05:00:00 13.6 8 Sudoeste 13 Sudoeste -- -- -- 84
2019-03-29 04:00:00 13.7 11 Sudoeste 14 Sudoeste -- -- -- 86
2019-03-29 03:00:00 13.5 9 Sudoeste 13 Sudoeste -- -- -- 86
2019-03-29 02:00:00 13.5 11 Sudoeste 13 Sudoeste -- -- -- 87
2019-03-29 01:00:00 13.2 11 Sudoeste 13 Sudoeste -- -- -- 89
2019-03-29 00:00:00 13.4 9 Sudoeste 13 Sudoeste -- -- -- 89
2019-03-28 23:00:00 13.7 9 Sudoeste 12 Sudoeste -- -- -- 89
2019-03-28 22:00:00 13.9 6 Sudoeste 9 Sudoeste -- -- -- 90
2019-03-28 21:00:00 14.4 7 Sudoeste 8 Sudoeste -- -- -- 90
2019-03-28 20:00:00 15 4 Sudoeste 7 Sudoeste -- -- -- 88
2019-03-28 19:00:00 17 4 Sur 12 Sudeste -- -- -- 85
2019-03-28 18:00:00 16.8 4 Sudeste 12 Sudeste -- -- -- 89
2019-03-28 17:00:00 15.9 6 Sudeste 10 Este -- -- -- 91
2019-03-28 16:00:00 16.1 4 Sudeste 6 Sudeste -- -- -- 90
2019-03-28 15:00:00 16.2 3 Sur 13 Sudeste -- -- -- 89
2019-03-28 14:00:00 17.2 4 Sudeste 15 Este -- -- -- 79
2019-03-28 13:00:00 18.9 10 Este 14 Este -- -- -- 68
2019-03-28 12:00:00 19.1 10 Este 16 Este -- -- -- 65
2019-03-28 11:00:00 19.6 12 Este 17 Este -- -- -- 64
2019-03-28 10:00:00 19.4 11 Este 14 Este -- -- -- 66
2019-03-28 09:00:00 19.5 4 Este 9 Sur -- -- -- 66
2019-03-28 08:00:00 16.3 6 Sur 12 Sur -- -- -- 72
2019-03-28 07:00:00 13.7 5 Sudoeste 14 Sur -- -- -- 81
2019-03-28 06:00:00 14.7 9 Sur 11 Sur -- -- -- 76
2019-03-28 05:00:00 14.3 7 Sudoeste 13 Sur -- -- -- 78
2019-03-28 04:00:00 15.1 8 Sur 13 Sur -- -- -- 76
2019-03-28 03:00:00 15.4 8 Sur 13 Sur -- -- -- 76
2019-03-28 02:00:00 15.7 7 Sur 10 Sur -- -- -- 76
2019-03-28 01:00:00 16 6 Sur 12 Sur -- -- -- 75
2019-03-28 00:00:00 16 5 Sudoeste 12 Sudoeste -- -- -- 75
2019-03-27 23:00:00 16.7 7 Sudoeste 13 Sudoeste -- -- -- 72
2019-03-27 22:00:00 16.3 8 Sur 14 Sudeste -- -- -- 75
2019-03-27 21:00:00 17.8 12 Sudeste 17 Sudeste -- -- -- 74
2019-03-27 20:00:00 18 5 Sudeste 14 Este -- -- -- 73
2019-03-27 19:00:00 18.9 10 Este 13 Este -- -- -- 73
2019-03-27 18:00:00 20.7 9 Este 18 Este -- -- -- 65
2019-03-27 17:00:00 19.9 12 Este 16 Este -- -- -- 69
2019-03-27 16:00:00 19.9 10 Este 17 Este -- -- -- 67
2019-03-27 15:00:00 19.6 10 Este 13 Este -- -- -- 68
2019-03-27 14:00:00 19.4 10 Este 15 Este -- -- -- 70
2019-03-27 13:00:00 19.6 12 Este 19 Este -- -- -- 70
2019-03-27 12:00:00 19.6 15 Este 19 Este -- -- -- 72
2019-03-27 11:00:00 19.9 10 Este 14 Este -- -- -- 69
2019-03-27 10:00:00 19.5 11 Este 18 Este -- -- -- 73
2019-03-27 09:00:00 18.9 9 Este 14 Sudeste -- -- -- 74
2019-03-27 08:00:00 17.3 7 Sudeste 14 Sudeste -- -- -- 81
2019-03-27 07:00:00 17.1 9 Este 14 Este -- -- -- 82
2019-03-27 06:00:00 16.9 6 Sudeste 21 Nordeste -- -- -- 82
2019-03-27 05:00:00 16.6 7 Sudeste 13 Sudeste -- -- -- 84
2019-03-27 04:00:00 16.8 6 Sudeste 14 Este -- -- -- 83
2019-03-27 03:00:00 16.6 4 Sudeste 12 Este -- -- -- 81
2019-03-27 02:00:00 16 3 Sur 6 Sur -- -- -- 80
2019-03-27 01:00:00 15.4 4 Sur 8 Sudoeste -- -- -- 77
2019-03-27 00:00:00 15.7 6 Sudoeste 11 Sur -- -- -- 74
2019-03-26 23:00:00 15.2 7 Sur 10 Sur -- -- -- 82
2019-03-26 22:00:00 16.4 4 Sudeste 13 Este -- -- -- 80
2019-03-26 21:00:00 17.8 9 Este 17 Este -- -- -- 79
2019-03-26 20:00:00 18.3 13 Este 18 Este -- -- -- 77
2019-03-26 19:00:00 18.7 12 Este 16 Este -- -- -- 74
2019-03-26 18:00:00 19.8 12 Este 16 Este -- -- -- 71
2019-03-26 17:00:00 20.1 13 Este 17 Este -- -- -- 70
2019-03-26 16:00:00 19.8 6 Nordeste 24 Norte -- -- -- 72
2019-03-26 15:00:00 21.3 14 Noroeste 24 Noroeste -- -- -- 65
2019-03-26 14:00:00 21.3 10 Norte 22 Noroeste -- -- -- 61
2019-03-26 13:00:00 20.7 13 Noroeste 22 Noroeste -- -- -- 64
2019-03-26 12:00:00 20.6 11 Noroeste 20 Noroeste -- -- -- 63
2019-03-26 11:00:00 20.7 8 Noroeste 17 Noroeste -- -- -- 58
2019-03-26 10:00:00 19.3 6 Noroeste 14 Noroeste -- -- -- 71
2019-03-26 09:00:00 18.8 5 Norte 11 Sur -- -- -- 72
2019-03-26 08:00:00 15.3 6 Sudoeste 10 Sudoeste -- -- -- 89
2019-03-26 07:00:00 13.2 8 Sudoeste 11 Sudoeste -- -- -- 92
2019-03-26 06:00:00 13.4 7 Sudoeste 10 Sudoeste -- -- -- 92
2019-03-26 05:00:00 13.6 7 Sudoeste 9 Sudoeste -- -- -- 92
2019-03-26 04:00:00 14.1 6 Sudoeste 12 Sudoeste -- -- -- 91
2019-03-26 03:00:00 14.3 10 Sudoeste 13 Sudoeste -- -- -- 90
2019-03-26 02:00:00 14.4 8 Sudoeste 10 Sudoeste -- -- -- 88
2019-03-26 01:00:00 14.3 7 Sudoeste 12 Sudoeste -- -- -- 86
2019-03-26 00:00:00 14.2 5 Sudoeste 15 Sudoeste -- -- -- 86
2019-03-25 23:00:00 13.7 10 Sudoeste 13 Sudoeste -- -- -- 87
2019-03-25 22:00:00 13.2 10 Sudoeste 13 Sudoeste -- -- -- 88
2019-03-25 21:00:00 13.6 9 Sudoeste 13 Sudoeste -- -- -- 88
2019-03-25 20:00:00 14.2 5 Sudoeste 9 Sudoeste -- -- -- 89
2019-03-25 19:00:00 15.9 5 Sudeste 9 Sudeste -- -- -- 83
2019-03-25 18:00:00 16.6 3 Este 10 Sudeste -- -- -- 79
2019-03-25 17:00:00 17.1 5 Nordeste 10 Norte -- -- -- 75
2019-03-25 16:00:00 19 0 Calma 12 Sudoeste -- -- -- 61
2019-03-25 15:00:00 17.3 3 Este 12 Este -- -- -- 72
2019-03-25 14:00:00 16.9 6 Este 17 Este -- -- -- 79
2019-03-25 13:00:00 16.6 8 Sudeste 17 Este -- -- -- 85
2019-03-25 12:00:00 15.1 12 Este 16 Este -- -- -- 88
2019-03-25 11:00:00 15.3 3 Sudoeste 7 Sudeste -- -- -- 91
2019-03-25 10:00:00 14.7 5 Sudoeste 8 Sur -- -- -- 92
2019-03-25 09:00:00 14.6 4 Sur 8 Oeste -- -- -- 92
2019-03-25 08:00:00 14.7 3 Oeste 26 Noroeste -- -- -- 90
2019-03-25 07:00:00 15.9 11 Oeste 26 Noroeste -- -- -- 81
2019-03-25 06:00:00 15.2 6 Sudoeste 10 Sudoeste -- -- -- 77
2019-03-25 05:00:00 15.1 6 Sudoeste 9 Sudoeste -- -- -- 78
2019-03-25 04:00:00 15.5 4 Sudoeste 9 Sudoeste -- -- -- 76
2019-03-25 03:00:00 15.3 6 Sudoeste 10 Sudoeste -- -- -- 76
2019-03-25 02:00:00 15.5 7 Sudoeste 9 Sudoeste -- -- -- 76
2019-03-25 01:00:00 15.9 5 Sudoeste 10 Sudoeste -- -- -- 76
2019-03-25 00:00:00 16.4 6 Sur 9 Sur -- -- -- 73
2019-03-24 23:00:00 16.5 3 Sudoeste 5 Sudoeste -- -- -- 70
2019-03-24 22:00:00 17.1 4 Sudeste 12 Este -- -- -- 66
2019-03-24 21:00:00 18 6 Este 9 Este -- -- -- 64
2019-03-24 20:00:00 18.1 3 Nordeste 8 Nordeste -- -- -- 63
2019-03-24 19:00:00 18.3 6 Este 12 Este 0 -- -- 64
2019-03-24 18:00:00 18.9 10 Este 20 Este 0 -- -- 61
2019-03-24 17:00:00 20.5 15 Este 21 Este 0 -- -- 58
2019-03-24 16:00:00 21.4 12 Este 16 Este 0 -- -- 52
2019-03-24 15:00:00 19.1 8 Este 12 Este 0 -- -- 59
2019-03-24 14:00:00 19.2 6 Este 12 Este 0 -- -- 59
2019-03-24 13:00:00 19.1 7 Nordeste 13 Nordeste 0 -- -- 60
2019-03-24 12:00:00 19 10 Este 15 Este 0 -- -- 62
2019-03-24 11:00:00 19.2 10 Este 15 Este 0 -- -- 58
2019-03-24 10:00:00 18.4 5 Este 8 Este 0 -- -- 57
2019-03-24 09:00:00 17.7 2 Sur 8 Sudoeste 0 -- -- 62
2019-03-24 08:00:00 15.9 4 Sudoeste 13 Sur 0 -- -- 64
2019-03-24 07:00:00 16.1 9 Sur 14 Sur 0 -- -- 64
2019-03-24 06:00:00 16.5 6 Sudeste 25 Este 0 -- -- 66
2019-03-24 05:00:00 16.1 8 Sudeste 23 Este 0 -- -- 67
2019-03-24 04:00:00 17.1 15 Sudeste 23 Este 0 -- -- 67
2019-03-24 03:00:00 16.9 14 Sudeste 24 Este 0 -- -- 69
2019-03-24 02:00:00 17.3 17 Este 26 Este 0 -- -- 70
2019-03-24 01:00:00 16.9 8 Sudeste 21 Sudeste 0 -- -- 64
2019-03-24 00:00:00 16.6 10 Sudeste 23 Sudeste 0 -- -- 65
2019-03-23 23:00:00 16.8 14 Sudeste 29 Este 0 -- -- 65
2019-03-23 22:00:00 17.1 22 Este 30 Este 0 -- -- 68
2019-03-23 21:00:00 17.6 23 Este 32 Este 0 -- -- 66
2019-03-23 20:00:00 17.7 24 Este 32 Este 0 -- -- 67
2019-03-23 19:00:00 17.8 21 Este 30 Este 0 -- -- 72
2019-03-23 18:00:00 18.5 17 Este 29 Este 0 -- -- 68
2019-03-23 17:00:00 19 22 Este 31 Este 0 -- -- 63
2019-03-23 16:00:00 19.5 23 Este 31 Este 0 -- -- 61
2019-03-23 15:00:00 19.1 24 Este 32 Este 0 -- -- 63
2019-03-23 14:00:00 19.5 23 Este 33 Este 0 -- -- 57
2019-03-23 13:00:00 19.3 24 Este 34 Este 0 -- -- 60
2019-03-23 12:00:00 18.8 26 Este 35 Este 0 -- -- 63
2019-03-23 11:00:00 19 26 Este 35 Este 0 -- -- 63
2019-03-23 10:00:00 18.9 25 Este 35 Este 0 -- -- 61
2019-03-23 09:00:00 18 21 Este 38 Sudeste 0 -- -- 61
2019-03-23 08:00:00 17.2 25 Sudeste 36 Sudeste 0 -- -- 63
2019-03-23 07:00:00 17.1 23 Sudeste 34 Este 0 -- -- 66
2019-03-23 06:00:00 17 24 Sudeste 34 Sudeste 0 -- -- 63
2019-03-23 05:00:00 17.1 20 Este 35 Este 0 -- -- 69
2019-03-23 04:00:00 17.2 25 Este 36 Sudeste 0 -- -- 68
2019-03-23 03:00:00 17.2 23 Sudeste 32 Sudeste 0 -- -- 67
2019-03-23 02:00:00 17 23 Sudeste 40 Sudeste 0 -- -- 69
2019-03-23 01:00:00 17.3 24 Sudeste 38 Sudeste 0 -- -- 69
2019-03-23 00:00:00 17.3 22 Sudeste 42 Sudeste 0 -- -- 69
2019-03-22 23:00:00 17.4 28 Sudeste 42 Este 0 -- -- 69
2019-03-22 22:00:00 17.2 23 Sudeste 42 Este 0 -- -- 69
2019-03-22 21:00:00 17.6 32 Este 44 Este 0 -- -- 70
2019-03-22 20:00:00 17.9 31 Este 45 Este 0 -- -- 70
2019-03-22 19:00:00 18 30 Este 41 Este 0 -- -- 70
2019-03-22 18:00:00 18.2 29 Este 39 Este 0 -- -- 67
2019-03-22 17:00:00 18.4 28 Este 39 Este 0 -- -- 66
2019-03-22 16:00:00 18.6 27 Este 39 Este 0 -- -- 63
2019-03-22 15:00:00 18.6 29 Este 40 Este 0 -- -- 65
2019-03-22 14:00:00 18.9 30 Este 41 Este 0 -- -- 63
2019-03-22 13:00:00 18.4 28 Este 39 Este 0 -- -- 62
2019-03-22 12:00:00 19.2 29 Este 44 Este 0 -- -- 59
2019-03-22 11:00:00 18.8 32 Este 47 Este 0 -- -- 61
2019-03-22 10:00:00 17.7 33 Este 46 Este 0 -- -- 63
2019-03-22 09:00:00 17.3 31 Este 45 Este 0 -- -- 64
2019-03-22 08:00:00 17 30 Este 40 Este 0 -- -- 65
2019-03-22 07:00:00 16.8 25 Sudeste 42 Sudeste 0 -- -- 62
2019-03-22 06:00:00 16.9 24 Sudeste 44 Sudeste 0 -- -- 61
2019-03-22 05:00:00 17 27 Sudeste 41 Sudeste 0 -- -- 64
2019-03-22 04:00:00 16.9 23 Sudeste 41 Sudeste 0 -- -- 66
2019-03-22 03:00:00 17 26 Sudeste 36 Sudeste 0 -- -- 62
2019-03-22 02:00:00 17.2 23 Sudeste 39 Este 0 -- -- 67
2019-03-22 01:00:00 17.2 22 Sudeste 41 Sudeste 0 -- -- 67
2019-03-22 00:00:00 17.3 26 Este 41 Este 0 -- -- 69
2019-03-21 23:00:00 17.7 32 Este 43 Este 0 -- -- 68
2019-03-21 22:00:00 17.9 30 Este 44 Este 0 -- -- 73
2019-03-21 21:00:00 17.7 32 Este 44 Este 0 -- -- 73
2019-03-21 20:00:00 17.9 32 Este 41 Este 0 -- -- 73
2019-03-21 19:00:00 18.1 30 Este 40 Este 0 -- -- 73
2019-03-21 18:00:00 18.4 30 Este 39 Este 0 -- -- 73
2019-03-21 17:00:00 18.8 30 Este 40 Este 0 -- -- 71
2019-03-21 16:00:00 19 30 Este 41 Este 0 -- -- 69
2019-03-21 15:00:00 19.4 29 Este 40 Este 0 -- -- 69
2019-03-21 14:00:00 20.1 30 Este 41 Este 0 -- -- 67
2019-03-21 13:00:00 20.1 32 Este 41 Este 0 -- -- 66
2019-03-21 12:00:00 18.7 30 Este 42 Este 0 -- -- 72
2019-03-21 11:00:00 19.2 30 Este 40 Este 0 -- -- 70
2019-03-21 10:00:00 20.5 22 Este 33 Este 0 -- -- 62
2019-03-21 09:00:00 18.8 18 Sudeste 31 Este 0 -- -- 65
2019-03-21 08:00:00 16.6 14 Sudeste 25 Sudeste 0 -- -- 72
2019-03-21 07:00:00 16.4 14 Sudeste 25 Sudeste 0 -- -- 72
2019-03-21 06:00:00 16.4 14 Sudeste 28 Sudeste 0 -- -- 71
2019-03-21 05:00:00 16.4 14 Sudeste 24 Sudeste 0 -- -- 71
2019-03-21 04:00:00 16.4 13 Sudeste 31 Sudeste 0 -- -- 70
2019-03-21 03:00:00 17.2 17 Sudeste 32 Sudeste 0 -- -- 68
2019-03-21 02:00:00 16.9 17 Sudeste 30 Sudeste 0 -- -- 69
2019-03-21 01:00:00 17.3 18 Sudeste 35 Sudeste 0 -- -- 66
2019-03-21 00:00:00 17.3 17 Sudeste 32 Sudeste 0 -- -- 63